createdAt,value
2023-12-30T00:02:10.862Z,0.83
2023-12-30T00:04:43.650Z,1.27
2023-12-30T00:07:16.420Z,0.80
2023-12-30T00:09:49.320Z,1.33
2023-12-30T00:12:22.924Z,0.83
2023-12-30T00:14:55.617Z,1.20
2023-12-30T00:17:29.658Z,1.43
2023-12-30T00:20:02.588Z,1.13
2023-12-30T00:22:36.181Z,1.50
2023-12-30T00:25:09.547Z,0.97
2023-12-30T00:27:42.268Z,2.80
2023-12-30T00:30:15.317Z,1.20
2023-12-30T00:32:52.567Z,0.93
2023-12-30T00:35:26.695Z,1.07
2023-12-30T00:37:59.362Z,2.40
2023-12-30T00:40:32.007Z,1.17
2023-12-30T00:43:05.265Z,1.97
2023-12-30T00:45:39.043Z,1.57
2023-12-30T00:48:13.251Z,1.67
2023-12-30T00:50:45.933Z,1.40
2023-12-30T00:53:19.780Z,1.43
2023-12-30T00:55:52.628Z,1.00
2023-12-30T00:58:25.419Z,1.30
2023-12-30T01:00:58.268Z,2.10
2023-12-30T01:03:32.506Z,1.27
2023-12-30T01:06:05.385Z,1.13
2023-12-30T01:08:38.081Z,1.03
2023-12-30T01:11:10.769Z,3.30
2023-12-30T01:13:43.727Z,1.33
2023-12-30T01:16:21.418Z,1.70
2023-12-30T01:18:58.711Z,2.10
2023-12-30T01:21:31.425Z,2.00
2023-12-30T01:24:04.352Z,1.33
2023-12-30T01:26:39.191Z,1.40
2023-12-30T01:29:11.907Z,1.37
2023-12-30T01:31:44.759Z,1.23
2023-12-30T01:34:18.999Z,1.33
2023-12-30T01:36:52.322Z,2.60
2023-12-30T01:39:25.212Z,1.27
2023-12-30T01:41:57.908Z,1.50
2023-12-30T01:44:30.724Z,0.90
2023-12-30T01:47:06.115Z,3.53
2023-12-30T01:49:40.289Z,1.73
2023-12-30T01:52:13.272Z,2.30
2023-12-30T01:54:46.102Z,1.23
2023-12-30T01:57:18.932Z,2.40
2023-12-30T01:59:52.407Z,1.43
2023-12-30T02:02:25.555Z,2.60
2023-12-30T02:04:59.991Z,3.27
2023-12-30T02:07:32.826Z,1.30
2023-12-30T02:10:05.933Z,1.73
2023-12-30T02:12:38.538Z,3.40
2023-12-30T02:15:15.194Z,2.53
2023-12-30T02:17:48.984Z,1.30
2023-12-30T02:20:23.246Z,3.37
2023-12-30T02:22:57.295Z,1.70
2023-12-30T02:25:30.208Z,1.93
2023-12-30T02:28:03.891Z,3.50
2023-12-30T02:30:36.695Z,2.40
2023-12-30T02:33:09.716Z,2.43
2023-12-30T02:38:19.898Z,2.10
2023-12-30T02:40:52.704Z,5.07
2023-12-30T02:43:28.115Z,5.43
2023-12-30T02:46:01.731Z,1.60
2023-12-30T02:48:34.530Z,2.13
2023-12-30T02:51:07.172Z,4.03
2023-12-30T02:53:41.320Z,3.40
2023-12-30T02:56:20.705Z,1.40
2023-12-30T02:58:58.144Z,2.83
2023-12-30T03:01:31.891Z,1.93
2023-12-30T03:04:04.892Z,3.03
2023-12-30T03:06:37.833Z,1.87
2023-12-30T03:09:12.067Z,3.03
2023-12-30T03:11:45.017Z,1.33
2023-12-30T03:14:18.005Z,1.93
2023-12-30T03:16:50.754Z,1.97
2023-12-30T03:19:32.934Z,1.53
2023-12-30T03:22:06.403Z,1.27
2023-12-30T03:24:40.847Z,3.63
2023-12-30T03:27:13.595Z,2.47
2023-12-30T03:29:46.325Z,1.27
2023-12-30T03:32:18.976Z,1.17
2023-12-30T03:34:51.741Z,1.00
2023-12-30T03:37:24.645Z,2.27
2023-12-30T03:40:01.334Z,1.83
2023-12-30T03:42:34.204Z,4.43
2023-12-30T03:45:09.828Z,1.50
2023-12-30T03:47:45.620Z,1.37
2023-12-30T03:50:18.985Z,1.87
2023-12-30T03:52:51.848Z,2.77
2023-12-30T03:55:26.836Z,1.00
2023-12-30T03:57:59.582Z,2.00
2023-12-30T04:00:33.261Z,1.20
2023-12-30T04:03:08.568Z,1.73
2023-12-30T04:05:41.827Z,2.87
2023-12-30T04:08:14.593Z,0.70
2023-12-30T04:10:51.040Z,1.77
2023-12-30T04:13:23.865Z,1.80
2023-12-30T04:15:56.568Z,2.07
2023-12-30T04:18:29.307Z,1.37
2023-12-30T04:21:04.841Z,3.00
2023-12-30T04:23:37.459Z,2.00
2023-12-30T04:26:13.804Z,3.93
2023-12-30T04:28:48.556Z,1.53
2023-12-30T04:31:22.176Z,1.40
2023-12-30T04:33:54.958Z,1.53
2023-12-30T04:36:27.766Z,1.60
2023-12-30T04:39:03.321Z,2.63
2023-12-30T04:41:41.678Z,1.00
2023-12-30T04:44:15.411Z,1.33
2023-12-30T04:46:49.305Z,1.43
2023-12-30T04:49:22.071Z,1.97
2023-12-30T04:51:54.876Z,4.77
2023-12-30T04:54:27.636Z,2.80
2023-12-30T04:57:01.825Z,1.53
2023-12-30T04:59:37.123Z,1.20
2023-12-30T05:02:12.263Z,1.73
2023-12-30T05:04:44.942Z,1.80
2023-12-30T05:07:18.900Z,2.30
2023-12-30T05:09:51.752Z,2.60
2023-12-30T05:12:26.545Z,1.70
2023-12-30T05:14:59.279Z,1.87
2023-12-30T05:17:34.043Z,1.80
2023-12-30T05:20:11.653Z,1.13
2023-12-30T05:22:44.416Z,2.63
2023-12-30T05:25:17.597Z,1.63
2023-12-30T05:27:51.604Z,1.10
2023-12-30T05:30:25.214Z,2.57
2023-12-30T05:32:58.041Z,1.63
2023-12-30T05:35:33.378Z,0.97
2023-12-30T05:38:08.980Z,1.20
2023-12-30T05:40:42.037Z,2.53
2023-12-30T05:43:16.008Z,0.93
2023-12-30T05:45:48.712Z,3.67
2023-12-30T05:48:24.052Z,1.47
2023-12-30T05:51:02.069Z,1.90
2023-12-30T05:53:34.834Z,0.90
2023-12-30T05:56:16.645Z,1.20
2023-12-30T05:58:50.794Z,0.90
2023-12-30T06:01:23.743Z,1.30
2023-12-30T06:03:57.671Z,1.37
2023-12-30T06:06:32.908Z,1.00
2023-12-30T06:09:09.249Z,1.53
2023-12-30T06:11:42.787Z,1.07
2023-12-30T06:14:18.945Z,1.23
2023-12-30T06:16:53.776Z,1.03
2023-12-30T06:19:27.449Z,1.97
2023-12-30T06:22:00.495Z,1.23
2023-12-30T06:24:33.236Z,2.67
2023-12-30T06:27:06.046Z,1.10
2023-12-30T06:29:45.153Z,1.33
2023-12-30T06:32:18.147Z,2.17
2023-12-30T06:34:51.765Z,4.90
2023-12-30T06:37:24.475Z,2.70
2023-12-30T06:39:57.402Z,1.13
2023-12-30T06:42:34.275Z,2.30
2023-12-30T06:45:10.122Z,1.30
2023-12-30T06:47:44.187Z,4.10
2023-12-30T06:50:19.575Z,2.10
2023-12-30T06:52:56.141Z,1.77
2023-12-30T06:55:35.141Z,1.30
2023-12-30T06:58:11.758Z,2.83
2023-12-30T07:00:45.992Z,2.70
2023-12-30T07:03:19.838Z,1.83
2023-12-30T07:05:52.623Z,2.07
2023-12-30T07:08:25.524Z,2.57
2023-12-30T07:11:01.350Z,1.77
2023-12-30T07:13:34.036Z,2.93
2023-12-30T07:16:08.768Z,3.17
2023-12-30T07:18:41.782Z,3.43
2023-12-30T07:21:16.047Z,2.03
2023-12-30T07:23:51.416Z,2.57
2023-12-30T07:26:27.635Z,2.47
2023-12-30T07:29:00.561Z,1.60
2023-12-30T07:31:34.721Z,3.17
2023-12-30T07:34:07.562Z,2.43
2023-12-30T07:36:40.663Z,1.83
2023-12-30T07:39:14.386Z,3.27
2023-12-30T07:41:47.110Z,2.10
2023-12-30T07:44:20.176Z,1.03
2023-12-30T07:46:54.552Z,3.83
2023-12-30T07:49:27.587Z,2.83
2023-12-30T07:52:02.356Z,3.87
2023-12-30T07:54:35.303Z,2.03
2023-12-30T07:57:08.037Z,3.60
2023-12-30T07:59:40.801Z,3.47
2023-12-30T08:02:15.421Z,3.53
2023-12-30T08:04:50.425Z,3.57
2023-12-30T08:07:23.248Z,3.37
2023-12-30T08:09:55.936Z,5.10
2023-12-30T08:12:28.573Z,5.80
2023-12-30T08:15:03.220Z,3.03
2023-12-30T08:17:40.024Z,2.67
2023-12-30T08:20:13.015Z,3.27
2023-12-30T08:22:46.833Z,2.70
2023-12-30T08:25:19.607Z,4.27
2023-12-30T08:27:52.516Z,4.70
2023-12-30T08:30:25.592Z,4.83
2023-12-30T08:33:05.480Z,4.10
2023-12-30T08:35:39.413Z,3.70
2023-12-30T08:38:12.294Z,2.93
2023-12-30T08:40:45.178Z,3.13
2023-12-30T08:43:18.571Z,1.40
2023-12-30T08:45:52.121Z,2.70
2023-12-30T08:48:35.161Z,2.80
2023-12-30T08:51:07.911Z,5.93
2023-12-30T08:53:43.258Z,2.43
2023-12-30T08:56:16.100Z,4.10
2023-12-30T08:58:49.753Z,4.17
2023-12-30T09:01:26.789Z,6.27
2023-12-30T09:04:01.952Z,2.23
2023-12-30T09:06:35.726Z,2.23
2023-12-30T09:09:09.317Z,3.30
2023-12-30T09:11:47.448Z,3.17
2023-12-30T09:14:20.854Z,5.33
2023-12-30T09:16:55.526Z,2.97
2023-12-30T09:19:29.913Z,3.87
2023-12-30T09:22:06.679Z,2.27
2023-12-30T09:24:39.407Z,4.60
2023-12-30T09:27:15.672Z,5.60
2023-12-30T09:29:50.701Z,3.60
2023-12-30T09:32:24.402Z,5.93
2023-12-30T09:35:00.212Z,4.57
2023-12-30T09:37:33.164Z,4.30
2023-12-30T09:40:06.869Z,5.20
2023-12-30T09:42:40.083Z,4.00
2023-12-30T09:45:14.313Z,3.90
2023-12-30T09:47:47.987Z,4.27
2023-12-30T09:50:22.439Z,4.03
2023-12-30T09:52:56.711Z,5.80
2023-12-30T09:55:32.835Z,5.83
2023-12-30T09:58:07.199Z,3.30
2023-12-30T10:00:43.655Z,3.73
2023-12-30T10:03:17.194Z,4.93
2023-12-30T10:05:52.363Z,4.83
2023-12-30T10:08:25.557Z,5.83
2023-12-30T10:10:58.941Z,4.90
2023-12-30T10:13:37.558Z,4.53
2023-12-30T10:16:10.485Z,4.33
2023-12-30T10:18:43.382Z,4.30
2023-12-30T10:21:29.208Z,3.03
2023-12-30T10:24:05.476Z,5.90
2023-12-30T10:26:40.987Z,4.90
2023-12-30T10:29:14.001Z,6.20
2023-12-30T10:31:59.669Z,4.70
2023-12-30T10:34:33.281Z,4.43
2023-12-30T10:37:09.195Z,4.70
2023-12-30T10:39:43.832Z,3.10
2023-12-30T10:42:17.520Z,6.50
2023-12-30T10:44:50.268Z,3.13
2023-12-30T10:47:25.266Z,6.13
2023-12-30T10:50:06.267Z,6.70
2023-12-30T10:52:46.025Z,4.90
2023-12-30T10:55:19.534Z,5.73
2023-12-30T10:57:56.601Z,4.87
2023-12-30T11:00:31.007Z,5.17
2023-12-30T11:03:05.149Z,2.93
2023-12-30T11:05:43.298Z,6.90
2023-12-30T11:08:19.082Z,7.53
2023-12-30T11:10:52.414Z,8.53
2023-12-30T11:13:26.241Z,3.00
2023-12-30T11:16:12.794Z,5.80
2023-12-30T11:18:49.497Z,6.07
2023-12-30T11:21:35.305Z,7.63
2023-12-30T11:24:11.008Z,6.63
2023-12-30T11:26:46.750Z,3.90
2023-12-30T11:29:21.378Z,7.40
2023-12-30T11:31:56.129Z,4.93
2023-12-30T11:34:30.552Z,5.93
2023-12-30T11:37:04.402Z,2.20
2023-12-30T11:39:41.944Z,3.13
2023-12-30T11:42:15.869Z,5.17
2023-12-30T11:44:55.457Z,5.07
2023-12-30T11:47:30.282Z,5.03
2023-12-30T11:50:03.953Z,6.17
2023-12-30T11:52:37.973Z,4.93
2023-12-30T11:55:12.263Z,3.93
2023-12-30T11:57:46.981Z,6.73
2023-12-30T12:00:21.367Z,6.00
2023-12-30T12:02:55.378Z,6.10
2023-12-30T12:05:28.056Z,7.43
2023-12-30T12:08:00.805Z,5.50
2023-12-30T12:10:38.833Z,4.93
2023-12-30T12:13:24.363Z,6.47
2023-12-30T12:15:58.048Z,6.50
2023-12-30T12:18:31.268Z,4.13
2023-12-30T12:21:05.605Z,5.03
2023-12-30T12:23:38.267Z,4.13
2023-12-30T12:26:14.676Z,6.10
2023-12-30T12:28:47.458Z,4.37
2023-12-30T12:31:20.164Z,7.83
2023-12-30T12:33:53.033Z,9.77
2023-12-30T12:36:25.922Z,3.77
2023-12-30T12:38:58.837Z,12.60
2023-12-30T12:41:34.254Z,3.93
2023-12-30T12:44:07.151Z,5.77
2023-12-30T12:46:40.197Z,3.40
2023-12-30T12:49:15.191Z,8.10
2023-12-30T12:51:47.898Z,3.90
2023-12-30T12:54:20.638Z,5.00
2023-12-30T12:56:57.613Z,6.87
2023-12-30T12:59:32.267Z,4.57
2023-12-30T13:02:05.272Z,7.43
2023-12-30T13:04:38.609Z,6.33
2023-12-30T13:09:54.833Z,4.40
2023-12-30T13:12:29.362Z,10.03
2023-12-30T13:15:02.830Z,4.23
2023-12-30T13:17:38.458Z,6.53
2023-12-30T13:20:13.263Z,4.83
2023-12-30T13:22:46.112Z,3.10
2023-12-30T13:25:20.688Z,5.53
2023-12-30T13:27:57.194Z,5.37
2023-12-30T13:30:29.951Z,4.07
2023-12-30T13:33:08.542Z,6.47
2023-12-30T13:35:44.173Z,6.23
2023-12-30T13:38:21.275Z,2.20
2023-12-30T13:40:59.658Z,6.13
2023-12-30T13:43:34.095Z,5.23
2023-12-30T13:46:30.702Z,5.70
2023-12-30T13:49:17.564Z,7.53
2023-12-30T13:51:54.947Z,3.60
2023-12-30T13:54:28.015Z,3.87
2023-12-30T13:57:12.814Z,5.17
2023-12-30T13:59:47.250Z,4.60
2023-12-30T14:02:23.149Z,4.60
2023-12-30T14:04:59.119Z,5.57
2023-12-30T14:07:32.914Z,5.80
2023-12-30T14:10:07.886Z,7.70
2023-12-30T14:12:42.345Z,5.83
2023-12-30T14:15:20.062Z,5.33
2023-12-30T14:17:53.745Z,4.97
2023-12-30T14:20:27.068Z,8.90
2023-12-30T14:22:59.917Z,6.87
2023-12-30T14:25:33.332Z,7.87
2023-12-30T14:28:07.292Z,5.80
2023-12-30T14:30:42.449Z,3.90
2023-12-30T14:33:15.279Z,3.83
2023-12-30T14:35:48.125Z,3.77
2023-12-30T14:38:21.176Z,9.43
2023-12-30T14:40:54.597Z,4.77
2023-12-30T14:43:27.400Z,4.83
2023-12-30T14:46:01.854Z,5.67
2023-12-30T14:48:34.599Z,5.17
2023-12-30T14:51:08.392Z,7.80
2023-12-30T14:53:45.342Z,7.77
2023-12-30T14:56:23.697Z,7.17
2023-12-30T14:58:57.523Z,8.77
2023-12-30T15:01:31.865Z,5.40
2023-12-30T15:04:04.805Z,4.40
2023-12-30T15:06:37.584Z,6.10
2023-12-30T15:09:11.465Z,7.30
2023-12-30T15:11:44.520Z,8.07
2023-12-30T15:14:17.758Z,7.13
2023-12-30T15:16:52.409Z,6.43
2023-12-30T15:19:25.557Z,6.17
2023-12-30T15:22:00.581Z,7.33
2023-12-30T15:24:33.286Z,5.97
2023-12-30T15:27:06.378Z,6.50
2023-12-30T15:29:39.159Z,7.50
2023-12-30T15:32:13.436Z,5.20
2023-12-30T15:34:49.999Z,10.07
2023-12-30T15:37:22.765Z,5.63
2023-12-30T15:39:55.599Z,9.77
2023-12-30T15:42:28.353Z,6.73
2023-12-30T15:45:01.016Z,10.27
2023-12-30T15:47:37.240Z,7.33
2023-12-30T15:50:15.358Z,6.40
2023-12-30T15:52:48.897Z,8.93
2023-12-30T15:55:21.709Z,4.77
2023-12-30T15:57:54.456Z,8.77
2023-12-30T16:00:29.078Z,8.17
2023-12-30T16:03:03.659Z,8.47
2023-12-30T16:05:36.985Z,7.33
2023-12-30T16:08:10.801Z,7.43
2023-12-30T16:10:43.794Z,10.13
2023-12-30T16:13:19.098Z,8.60
2023-12-30T16:15:53.914Z,8.83
2023-12-30T16:18:29.346Z,7.93
2023-12-30T16:21:02.205Z,8.13
2023-12-30T16:23:39.035Z,10.13
2023-12-30T16:26:12.188Z,9.53
2023-12-30T16:28:48.320Z,11.83
2023-12-30T16:31:23.011Z,10.60
2023-12-30T16:33:57.409Z,10.53
2023-12-30T16:36:30.301Z,10.33
2023-12-30T16:39:03.019Z,8.23
2023-12-30T16:41:36.024Z,10.33
2023-12-30T16:44:09.464Z,7.90
2023-12-30T16:46:43.242Z,11.80
2023-12-30T16:49:17.520Z,10.10
2023-12-30T16:51:53.231Z,10.27
2023-12-30T16:54:25.941Z,11.33
2023-12-30T16:56:59.268Z,9.03
2023-12-30T16:59:33.558Z,12.10
2023-12-30T17:02:07.253Z,10.47
2023-12-30T17:04:41.494Z,9.83
2023-12-30T17:07:15.067Z,11.80
2023-12-30T17:09:47.686Z,12.57
2023-12-30T17:12:20.424Z,10.77
2023-12-30T17:14:53.114Z,15.67
2023-12-30T17:17:25.970Z,10.37
2023-12-30T17:20:00.280Z,9.13
2023-12-30T17:22:36.399Z,13.27
2023-12-30T17:25:09.919Z,13.67
2023-12-30T17:27:43.571Z,10.43
2023-12-30T17:30:19.248Z,10.47
2023-12-30T17:32:52.518Z,11.80
2023-12-30T17:35:29.068Z,20.63
2023-12-30T17:38:01.754Z,14.40
2023-12-30T17:40:34.936Z,7.97
2023-12-30T17:43:07.815Z,14.67
2023-12-30T17:45:43.624Z,8.53
2023-12-30T17:48:16.683Z,18.07
2023-12-30T17:50:50.705Z,22.07
2023-12-30T17:53:23.423Z,16.37
2023-12-30T17:55:56.280Z,15.33
2023-12-30T17:58:29.023Z,15.37
2023-12-30T18:01:01.863Z,16.60
2023-12-30T18:03:37.510Z,25.47
2023-12-30T18:06:11.958Z,25.63
2023-12-30T18:08:45.082Z,18.83
2023-12-30T18:11:17.794Z,15.53
2023-12-30T18:13:50.668Z,18.87
2023-12-30T18:16:24.344Z,18.83
2023-12-30T18:18:57.330Z,22.97
2023-12-30T18:21:31.497Z,23.50
2023-12-30T18:24:05.200Z,18.13
2023-12-30T18:26:39.623Z,16.20
2023-12-30T18:29:12.280Z,19.27
2023-12-30T18:31:45.045Z,15.53
2023-12-30T18:34:17.949Z,18.67
2023-12-30T18:36:53.351Z,12.67
2023-12-30T18:39:26.295Z,19.37
2023-12-30T18:41:59.080Z,15.17
2023-12-30T18:44:31.784Z,15.50
2023-12-30T18:47:04.540Z,16.40
2023-12-30T18:49:37.319Z,16.33
2023-12-30T18:52:11.459Z,12.00
2023-12-30T18:54:44.217Z,11.23
2023-12-30T18:57:17.652Z,14.00
2023-12-30T18:59:50.723Z,15.93
2023-12-30T19:02:23.375Z,31.07
2023-12-30T19:04:56.257Z,32.33
2023-12-30T19:07:30.553Z,26.53
2023-12-30T19:10:08.401Z,33.17
2023-12-30T19:12:41.285Z,26.47
2023-12-30T19:15:15.270Z,25.13
2023-12-30T19:17:50.421Z,25.90
2023-12-30T19:20:26.076Z,24.77
2023-12-30T19:23:00.553Z,20.37
2023-12-30T19:25:35.949Z,21.23
2023-12-30T19:28:10.309Z,20.23
2023-12-30T19:30:43.085Z,37.17
2023-12-30T19:33:16.279Z,28.83
2023-12-30T19:35:49.518Z,37.20
2023-12-30T19:38:24.131Z,23.83
2023-12-30T19:40:57.393Z,16.77
2023-12-30T19:43:30.221Z,14.57
2023-12-30T19:46:07.046Z,17.93
2023-12-30T19:48:40.249Z,21.27
2023-12-30T19:51:13.081Z,27.73
2023-12-30T19:53:48.929Z,16.80
2023-12-30T19:56:28.155Z,18.27
2023-12-30T19:59:00.893Z,14.43
2023-12-30T20:01:34.065Z,14.47
2023-12-30T20:04:06.934Z,15.03
2023-12-30T20:06:49.239Z,13.63
2023-12-30T20:09:23.494Z,13.03
2023-12-30T20:11:56.152Z,14.20
2023-12-30T20:14:29.187Z,11.23
2023-12-30T20:17:04.506Z,13.43
2023-12-30T20:19:39.113Z,14.33
2023-12-30T20:22:14.332Z,11.83
2023-12-30T20:24:48.478Z,15.17
2023-12-30T20:27:21.554Z,15.07
2023-12-30T20:29:54.730Z,12.33
2023-12-30T20:32:27.487Z,12.03
2023-12-30T20:35:00.279Z,13.10
2023-12-30T20:37:35.511Z,27.83
2023-12-30T20:40:15.768Z,27.10
2023-12-30T20:42:48.469Z,11.67
2023-12-30T20:45:21.149Z,8.33
2023-12-30T20:47:56.529Z,12.07
2023-12-30T20:50:33.030Z,10.43
2023-12-30T20:53:06.717Z,13.00
2023-12-30T20:55:42.839Z,12.53
2023-12-30T20:58:16.498Z,29.73
2023-12-30T21:00:49.391Z,17.13
2023-12-30T21:03:22.318Z,13.13
2023-12-30T21:05:55.158Z,9.57
2023-12-30T21:08:27.985Z,9.40
2023-12-30T21:11:02.105Z,22.80
2023-12-30T21:13:34.814Z,14.93
2023-12-30T21:16:07.840Z,15.30
2023-12-30T21:18:42.850Z,15.17
2023-12-30T21:21:16.517Z,19.17
2023-12-30T21:23:49.650Z,14.40
2023-12-30T21:26:24.111Z,22.43
2023-12-30T21:28:59.996Z,19.33
2023-12-30T21:31:32.819Z,20.20
2023-12-30T21:34:05.643Z,13.13
2023-12-30T21:36:38.473Z,13.67
2023-12-30T21:39:15.078Z,11.97
2023-12-30T21:41:49.118Z,13.67
2023-12-30T21:44:24.754Z,12.07
2023-12-30T21:46:57.571Z,7.23
2023-12-30T21:49:30.412Z,10.53
2023-12-30T21:52:03.984Z,10.80
2023-12-30T21:54:36.729Z,11.97
2023-12-30T21:57:10.945Z,11.53
2023-12-30T21:59:43.821Z,12.10
2023-12-30T22:02:16.744Z,9.17
2023-12-30T22:04:52.040Z,10.97
2023-12-30T22:07:27.420Z,15.47
2023-12-30T22:10:00.578Z,11.77
2023-12-30T22:12:35.511Z,10.77
2023-12-30T22:15:08.743Z,11.20
2023-12-30T22:17:44.312Z,13.43
2023-12-30T22:20:18.025Z,12.83
2023-12-30T22:22:53.087Z,15.03
2023-12-30T22:25:25.827Z,13.33
2023-12-30T22:27:59.942Z,14.00
2023-12-30T22:30:35.374Z,15.73
2023-12-30T22:33:09.669Z,19.27
2023-12-30T22:35:42.641Z,16.77
2023-12-30T22:38:15.449Z,12.73
2023-12-30T22:40:48.998Z,12.10
2023-12-30T22:43:23.265Z,10.33
2023-12-30T22:45:56.275Z,16.20
2023-12-30T22:48:28.978Z,11.83
2023-12-30T22:51:01.779Z,14.37
2023-12-30T22:53:34.616Z,7.87
2023-12-30T22:56:11.036Z,14.70
2023-12-30T22:58:45.309Z,12.10
2023-12-30T23:01:18.524Z,12.70
2023-12-30T23:03:51.400Z,13.87
2023-12-30T23:06:24.095Z,9.97
2023-12-30T23:08:56.806Z,15.43
2023-12-30T23:11:30.311Z,17.57
2023-12-30T23:14:04.460Z,21.17
2023-12-30T23:16:45.196Z,19.93
2023-12-30T23:19:25.308Z,10.90
2023-12-30T23:21:58.892Z,12.53
2023-12-30T23:24:31.726Z,10.17
2023-12-30T23:27:04.450Z,11.30
2023-12-30T23:29:39.530Z,12.67
2023-12-30T23:32:14.087Z,10.73
2023-12-30T23:34:50.142Z,11.60
2023-12-30T23:37:25.186Z,11.13
2023-12-30T23:39:59.961Z,15.17
2023-12-30T23:42:32.716Z,11.83
2023-12-30T23:45:09.959Z,10.63
2023-12-30T23:47:45.450Z,13.27
2023-12-30T23:50:20.649Z,9.00
2023-12-30T23:52:53.706Z,12.13
2023-12-30T23:55:28.624Z,12.03
2023-12-30T23:58:01.353Z,25.50
